Time;durP1;ratioP1;P1;durP2;ratioP2;P2;SDS_P1;SDS_P2;PMS_P1;PMS_P2;Temp;Humidity;BMP_temperature;BMP_pressure;BME280_temperature;BME280_humidity;BME280_pressure;Samples;Min_cycle;Max_cycle;Signal;HPM_P1;HPM_P2
2021/11/11 00:00:15;;;;;;;;;70.75;53.75;;;;;4.37;85.06;101579.72;5013504;27;45231;-65
2021/11/11 00:02:41;;;;;;;;;71.00;54.25;;;;;4.35;84.63;101580.59;5013861;28;45321;-65
2021/11/11 00:05:08;;;;;;;;;70.75;54.50;;;;;4.30;84.65;101575.38;5073743;27;45486;-67
2021/11/11 00:07:33;;;;;;;;;77.00;55.50;;;;;4.25;84.93;101569.28;5118662;27;45367;-65
2021/11/11 00:10:00;;;;;;;;;70.75;54.50;;;;;4.19;85.13;101564.91;5092735;27;45431;-64
2021/11/11 00:12:26;;;;;;;;;70.25;53.25;;;;;4.12;84.66;101560.56;5097569;27;45424;-66
2021/11/11 00:14:53;;;;;;;;;73.25;55.25;;;;;4.12;84.88;101557.94;5117582;27;45644;-67
2021/11/11 00:17:19;;;;;;;;;70.50;53.75;;;;;4.18;84.83;101580.53;5117517;27;45296;-67
2021/11/11 00:19:44;;;;;;;;;73.25;52.50;;;;;4.15;84.75;101576.19;5118953;27;45246;-66
2021/11/11 00:22:10;;;;;;;;;70.00;53.75;;;;;4.14;85.41;101579.66;5122266;27;45346;-67
2021/11/11 00:24:35;;;;;;;;;70.50;54.25;;;;;4.12;85.01;101585.75;5118048;27;45287;-66
2021/11/11 00:27:01;;;;;;;;;68.00;49.75;;;;;4.11;85.16;101576.19;5117336;27;46486;-66
2021/11/11 00:29:26;;;;;;;;;72.25;53.00;;;;;4.05;85.65;101572.72;5117666;27;45354;-66
2021/11/11 00:31:52;;;;;;;;;70.00;53.00;;;;;4.07;84.96;101575.28;5116404;27;45462;-66
2021/11/11 00:34:17;;;;;;;;;70.00;54.00;;;;;4.06;85.44;101557.94;5118105;27;45269;-67
2021/11/11 00:36:42;;;;;;;;;70.00;53.50;;;;;4.06;85.73;101558.81;5118492;27;46276;-67
2021/11/11 00:39:08;;;;;;;;;71.00;54.50;;;;;4.00;85.56;101540.59;5118375;27;45310;-68
2021/11/11 00:41:33;;;;;;;;;66.75;53.75;;;;;4.05;85.34;101546.66;5118947;27;45397;-67
2021/11/11 00:43:58;;;;;;;;;66.00;51.50;;;;;4.03;84.82;101544.91;5118813;27;45725;-65
2021/11/11 00:46:24;;;;;;;;;72.75;53.25;;;;;4.05;85.18;101548.38;5117947;27;46419;-68
2021/11/11 00:48:49;;;;;;;;;70.25;55.25;;;;;4.07;86.02;101551.88;5118658;27;45343;-67
2021/11/11 00:51:15;;;;;;;;;68.75;53.75;;;;;4.09;85.80;101539.72;5123909;27;45311;-66
2021/11/11 00:53:40;;;;;;;;;72.50;55.50;;;;;4.09;85.63;101539.72;5122832;27;45326;-64
2021/11/11 00:56:05;;;;;;;;;78.50;58.75;;;;;4.11;86.05;101535.38;5117542;27;46094;-64
2021/11/11 00:58:31;;;;;;;;;74.00;55.25;;;;;4.10;85.73;101541.44;5117327;27;45363;-64
2021/11/11 01:00:56;;;;;;;;;74.75;56.50;;;;;4.09;86.19;101537.13;5117388;27;45321;-64
2021/11/11 01:03:30;;;;;;;;;80.33;59.00;;;;;4.11;86.14;101537.97;5117736;27;45306;-66
2021/11/11 01:05:55;;;;;;;;;73.75;55.75;;;;;4.09;86.28;101543.19;5116491;27;46771;-66
2021/11/11 01:08:22;;;;;;;;;77.00;58.33;;;;;4.05;85.67;101533.66;5117165;27;45371;-67
2021/11/11 01:10:48;;;;;;;;;79.67;60.67;;;;;4.13;85.76;101549.28;5117338;27;45189;-67
2021/11/11 01:13:13;;;;;;;;;81.67;60.33;;;;;4.05;86.10;101528.44;5117111;27;45456;-63
2021/11/11 01:15:38;;;;;;;;;81.75;58.25;;;;;4.15;86.25;101538.88;5116788;27;46037;-65
2021/11/11 01:18:05;;;;;;;;;84.67;61.67;;;;;4.15;85.91;101539.72;5115487;27;45243;-67
2021/11/11 01:20:31;;;;;;;;;76.00;59.00;;;;;4.15;86.03;101537.13;5117808;27;45279;-66
2021/11/11 01:22:57;;;;;;;;;76.25;59.50;;;;;4.16;86.06;101536.25;5117177;27;45383;-67
2021/11/11 01:25:25;;;;;;;;;73.00;53.25;;;;;4.17;85.90;101531.94;5150794;27;45363;-66
2021/11/11 01:27:51;;;;;;;;;78.75;57.50;;;;;4.07;86.28;101518.91;5116610;27;45387;-66
2021/11/11 01:30:16;;;;;;;;;70.00;50.00;;;;;4.14;86.14;101527.56;5150901;27;45338;-67
2021/11/11 01:32:42;;;;;;;;;74.75;56.00;;;;;4.16;86.23;101533.66;5118811;27;45594;-67
2021/11/11 01:35:09;;;;;;;;;69.00;54.00;;;;;4.17;85.91;101526.72;5117073;27;45483;-69
2021/11/11 01:37:36;;;;;;;;;71.00;54.75;;;;;4.14;86.54;101522.38;5117083;27;45411;-67
2021/11/11 01:40:03;;;;;;;;;74.00;57.25;;;;;4.16;86.60;101525.00;5153152;27;45467;-69
2021/11/11 01:42:43;;;;;;;;;73.50;55.50;;;;;4.16;86.31;101517.19;5123277;27;45419;-67
2021/11/11 01:45:09;;;;;;;;;71.75;53.75;;;;;4.13;85.93;101510.22;5120559;27;45299;-66
2021/11/11 01:47:36;;;;;;;;;72.75;54.50;;;;;4.17;86.50;101505.88;5120764;27;45325;-66
2021/11/11 01:50:03;;;;;;;;;74.00;54.25;;;;;4.17;86.54;101500.69;5120365;27;45362;-66
2021/11/11 01:52:29;;;;;;;;;69.50;53.00;;;;;4.17;86.54;101500.69;5120139;27;45876;-65
2021/11/11 01:54:54;;;;;;;;;66.00;51.75;;;;;4.15;86.52;101498.06;5119829;27;45983;-66
2021/11/11 01:57:20;;;;;;;;;68.50;53.75;;;;;4.14;86.54;101504.13;5118237;27;45339;-64
2021/11/11 01:59:45;;;;;;;;;72.50;55.25;;;;;4.16;86.74;101505.00;5120035;27;45334;-67
2021/11/11 02:02:11;;;;;;;;;71.50;54.25;;;;;4.15;86.44;101502.41;5119371;27;45493;-66
2021/11/11 02:04:36;;;;;;;;;71.50;55.00;;;;;4.14;86.83;101503.28;5121278;27;46283;-65
2021/11/11 02:07:01;;;;;;;;;73.50;57.25;;;;;4.13;86.68;101510.22;5120714;27;45342;-66
2021/11/11 02:09:27;;;;;;;;;75.67;55.00;;;;;4.07;86.12;101502.41;5120105;27;45236;-66
2021/11/11 02:11:52;;;;;;;;;75.25;57.50;;;;;4.12;86.68;101497.22;5118706;27;45250;-65
2021/11/11 02:14:18;;;;;;;;;74.25;55.75;;;;;4.11;86.58;101495.47;5119512;27;45459;-64
2021/11/11 02:16:43;;;;;;;;;71.50;54.75;;;;;4.11;86.81;101493.72;5120137;27;45324;-65
2021/11/11 02:19:09;;;;;;;;;81.00;55.50;;;;;4.13;86.84;101494.59;5120693;27;45263;-67
2021/11/11 02:21:38;;;;;;;;;65.75;53.00;;;;;4.13;86.46;101486.78;5119942;27;45244;-66
2021/11/11 02:24:04;;;;;;;;;69.00;53.50;;;;;4.13;85.99;101491.97;5119412;27;46011;-65
2021/11/11 02:26:29;;;;;;;;;67.00;52.25;;;;;4.07;85.91;101482.44;5118485;27;45314;-67
2021/11/11 02:28:55;;;;;;;;;74.75;56.00;;;;;4.10;86.13;101497.19;5122634;27;45425;-67
2021/11/11 02:31:21;;;;;;;;;74.00;57.00;;;;;4.06;86.40;101496.34;5122551;27;45784;-66
2021/11/11 02:33:54;;;;;;;;;69.50;52.50;;;;;4.07;86.01;101505.00;5119526;27;47188;-66
2021/11/11 02:36:19;;;;;;;;;74.25;56.75;;;;;4.07;86.61;101507.59;5153691;27;45381;-68
2021/11/11 02:38:44;;;;;;;;;71.00;52.50;;;;;4.02;86.12;101499.78;5122014;27;45397;-66
2021/11/11 02:41:10;;;;;;;;;70.50;51.50;;;;;4.04;86.25;101510.19;5124476;27;45251;-68
2021/11/11 02:43:35;;;;;;;;;70.75;56.50;;;;;4.04;85.63;101507.59;5121895;27;45271;-66
2021/11/11 02:46:01;;;;;;;;;64.50;50.75;;;;;3.97;85.69;101500.63;5123098;27;45421;-67
2021/11/11 02:48:27;;;;;;;;;67.50;52.75;;;;;3.97;85.56;101508.44;5119676;27;45524;-66
2021/11/11 02:50:53;;;;;;;;;67.00;51.00;;;;;3.98;86.24;101504.97;5119076;27;45525;-67
2021/11/11 02:53:20;;;;;;;;;69.75;52.75;;;;;3.94;85.88;101501.53;5118812;27;46287;-66
2021/11/11 02:55:46;;;;;;;;;70.75;55.00;;;;;3.89;86.13;101498.03;5119169;27;45330;-67
2021/11/11 02:58:11;;;;;;;;;74.00;56.50;;;;;3.91;86.24;101502.38;5119255;27;45425;-65
2021/11/11 03:00:40;;;;;;;;;71.00;52.50;;;;;3.93;86.38;101505.00;5119806;27;45615;-64
2021/11/11 03:03:06;;;;;;;;;65.25;49.25;;;;;3.88;86.41;101497.16;5119306;27;45324;-67
2021/11/11 03:05:32;;;;;;;;;72.75;54.75;;;;;3.89;86.50;101506.69;5116830;27;45357;-66
2021/11/11 03:07:58;;;;;;;;;72.25;54.75;;;;;3.88;85.94;101497.16;5118796;27;45797;-65
2021/11/11 03:10:27;;;;;;;;;76.75;56.75;;;;;3.87;86.11;101497.16;5119015;27;45538;-67
2021/11/11 03:12:55;;;;;;;;;66.75;52.00;;;;;3.88;86.77;101504.97;5120295;27;45412;-65
2021/11/11 03:15:23;;;;;;;;;72.25;54.00;;;;;3.86;85.91;101504.09;5121473;27;45332;-67
2021/11/11 03:17:49;;;;;;;;;68.50;52.75;;;;;3.84;86.48;101503.22;5122449;27;45269;-65
2021/11/11 03:20:15;;;;;;;;;64.25;50.00;;;;;3.84;85.91;101503.22;5121863;27;45605;-65
2021/11/11 03:22:42;;;;;;;;;66.50;51.50;;;;;3.85;86.42;101496.28;5118986;27;46040;-65
2021/11/11 03:25:09;;;;;;;;;70.50;52.75;;;;;3.75;86.09;101482.38;5120810;27;45332;-67
2021/11/11 03:27:34;;;;;;;;;67.25;52.50;;;;;3.84;85.51;101497.16;5120237;27;45356;-66
2021/11/11 03:30:00;;;;;;;;;71.50;54.25;;;;;3.84;86.38;101507.56;5119748;27;45326;-66
2021/11/11 03:32:26;;;;;;;;;67.25;51.50;;;;;3.84;86.16;101497.16;5120857;27;45397;-66
2021/11/11 03:34:52;;;;;;;;;70.25;53.50;;;;;3.81;86.22;101503.22;5120349;27;45254;-67
2021/11/11 03:37:21;;;;;;;;;70.25;55.25;;;;;3.79;85.35;101508.44;5153615;27;45237;-67
2021/11/11 03:39:47;;;;;;;;;76.50;54.25;;;;;3.75;85.62;101508.41;5120070;27;45566;-64
2021/11/11 03:42:12;;;;;;;;;71.25;53.00;;;;;3.74;85.60;101506.66;5120835;27;46199;-65
2021/11/11 03:44:39;;;;;;;;;69.00;51.00;;;;;3.72;85.61;101508.38;5119495;27;45391;-67
2021/11/11 03:47:07;;;;;;;;;69.00;51.00;;;;;3.70;85.97;101510.13;5120303;27;45429;-66
2021/11/11 03:49:33;;;;;;;;;64.00;50.25;;;;;3.68;85.29;101517.03;5119780;27;45274;-65
2021/11/11 03:51:59;;;;;;;;;71.00;53.00;;;;;3.65;85.92;101515.28;5118358;27;46349;-66
2021/11/11 03:54:26;;;;;;;;;65.50;51.00;;;;;3.64;85.24;101514.44;5118514;27;45396;-67
2021/11/11 03:56:55;;;;;;;;;65.50;52.25;;;;;3.63;85.29;101517.91;5118086;27;45477;-67
2021/11/11 03:59:24;;;;;;;;;66.00;52.00;;;;;3.61;85.83;101521.34;5118236;27;45563;-68
2021/11/11 04:01:49;;;;;;;;;66.00;49.00;;;;;3.56;85.24;101510.06;5117365;27;46165;-66
2021/11/11 04:04:15;;;;;;;;;69.25;53.25;;;;;3.53;85.04;101507.44;5118193;27;45333;-66
2021/11/11 04:06:40;;;;;;;;;67.25;51.75;;;;;3.50;85.69;101506.56;5118332;27;45201;-66
2021/11/11 04:09:06;;;;;;;;;63.00;49.50;;;;;3.53;85.20;101510.03;5118971;27;45993;-66
2021/11/11 04:11:33;;;;;;;;;61.00;47.50;;;;;3.48;84.67;101521.28;5117690;27;48236;-67
2021/11/11 04:13:59;;;;;;;;;64.25;47.50;;;;;3.46;84.42;101511.75;5118520;27;45343;-66
2021/11/11 04:16:25;;;;;;;;;56.75;45.50;;;;;3.41;84.54;101521.28;5117891;27;45371;-66
2021/11/11 04:18:50;;;;;;;;;61.00;45.25;;;;;3.37;84.12;101517.78;5117874;27;45372;-67
2021/11/11 04:21:17;;;;;;;;;63.50;49.25;;;;;3.34;84.42;101522.97;5117991;27;46138;-67
2021/11/11 04:23:43;;;;;;;;;58.50;46.50;;;;;3.18;84.67;101515.09;5118028;27;45318;-69
2021/11/11 04:26:22;;;;;;;;;53.75;42.50;;;;;3.22;84.31;101537.66;5117731;27;45219;-65
2021/11/11 04:29:08;;;;;;;;;58.25;47.00;;;;;3.18;85.03;101542.81;5117025;27;45408;-65
2021/11/11 04:31:42;;;;;;;;;62.25;49.50;;;;;3.13;85.09;101555.78;5151274;27;46181;-67
2021/11/11 04:34:12;;;;;;;;;64.50;50.00;;;;;3.08;84.79;101547.09;5117237;27;45343;-65
2021/11/11 04:47:57;;;;;;;;;64.75;51.25;;;;;3.07;85.99;101545.34;5117439;27;45262;-66
2021/11/11 05:03:36;;;;;;;;;64.00;49.75;;;;;2.94;86.79;101554.78;5124657;27;45415;-66
2021/11/11 05:06:02;;;;;;;;;63.50;50.50;;;;;2.95;86.57;101555.66;5118440;27;45420;-66
2021/11/11 05:08:28;;;;;;;;;63.75;49.00;;;;;2.97;86.68;101556.56;5120942;27;45265;-68
2021/11/11 05:10:55;;;;;;;;;65.25;53.75;;;;;2.97;86.26;101548.75;5118093;27;45247;-66
2021/11/11 05:13:20;;;;;;;;;71.00;53.50;;;;;3.00;86.33;101556.56;5115737;27;47082;-63
2021/11/11 05:15:45;;;;;;;;;70.50;50.50;;;;;3.02;86.42;101547.91;5120390;27;45354;-64
2021/11/11 05:18:11;;;;;;;;;71.00;53.25;;;;;3.04;85.77;101548.78;5120672;27;45282;-65
2021/11/11 05:20:37;;;;;;;;;71.75;53.00;;;;;2.98;86.52;101538.34;5120803;27;45613;-65
2021/11/11 05:23:03;;;;;;;;;82.00;61.00;;;;;3.04;86.20;101546.19;5121099;27;45368;-67
2021/11/11 05:25:29;;;;;;;;;80.33;61.00;;;;;3.09;85.55;101554.03;5122537;27;45433;-66
2021/11/11 05:27:54;;;;;;;;;78.00;59.67;;;;;3.09;85.68;101550.56;5123040;27;45448;-64
2021/11/11 05:30:21;;;;;;;;;72.00;53.50;;;;;3.18;85.23;101561.00;5124284;27;45331;-65
2021/11/11 05:32:48;;;;;;;;;79.67;61.00;;;;;3.19;86.00;101558.44;5122760;27;45497;-66
2021/11/11 05:35:13;;;;;;;;;78.67;59.00;;;;;3.25;84.68;101564.53;5123238;27;45210;-68
2021/11/11 05:37:39;;;;;;;;;77.67;59.33;;;;;3.25;85.68;101565.41;5123761;27;45388;-66
2021/11/11 05:40:06;;;;;;;;;75.67;59.00;;;;;3.24;85.21;101568.00;5125072;27;45255;-67
2021/11/11 05:42:32;;;;;;;;;78.00;59.00;;;;;3.25;84.99;101569.72;5120718;27;46092;-66
2021/11/11 05:44:57;;;;;;;;;77.00;61.00;;;;;3.24;84.84;101565.38;5120259;27;45422;-67
2021/11/11 05:47:23;;;;;;;;;75.67;59.33;;;;;3.24;85.19;101566.28;5154454;27;45399;-66
2021/11/11 05:49:48;;;;;;;;;77.00;60.00;;;;;3.25;84.29;101575.81;5121190;27;45593;-65
2021/11/11 05:52:13;;;;;;;;;84.00;64.67;;;;;3.25;84.69;101588.81;5123931;27;45453;-67
2021/11/11 05:54:39;;;;;;;;;80.67;59.00;;;;;3.27;84.88;101591.41;5123709;27;45210;-68
2021/11/11 05:57:06;;;;;;;;;80.33;63.67;;;;;3.18;84.58;101582.69;5120616;27;45317;-67
2021/11/11 05:59:32;;;;;;;;;81.67;61.00;;;;;3.21;85.19;101587.06;5120567;27;45396;-66
2021/11/11 06:01:58;;;;;;;;;86.67;66.33;;;;;3.30;85.48;101601.84;5120764;27;46834;-65
2021/11/11 06:04:24;;;;;;;;;80.00;61.33;;;;;3.29;85.53;101603.56;5120883;27;45467;-66
2021/11/11 06:06:49;;;;;;;;;79.00;60.00;;;;;3.35;84.67;101614.03;5121757;27;45287;-66
2021/11/11 06:09:14;;;;;;;;;79.33;60.00;;;;;3.40;85.39;101618.38;5120247;27;45550;-67
2021/11/11 06:11:40;;;;;;;;;72.67;56.67;;;;;3.40;85.12;101619.22;5154137;27;46070;-67
2021/11/11 06:14:05;;;;;;;;;71.00;53.75;;;;;3.44;84.94;101633.16;5120396;27;45410;-68
2021/11/11 06:16:31;;;;;;;;;70.50;52.75;;;;;3.42;84.96;101632.25;5119783;27;45394;-66
2021/11/11 06:18:57;;;;;;;;;63.00;49.75;;;;;3.42;85.31;101640.06;5119875;27;45429;-66
2021/11/11 06:21:23;;;;;;;;;64.00;49.75;;;;;3.39;85.15;101643.50;5119771;27;46586;-68
2021/11/11 06:23:51;;;;;;;;;71.75;52.50;;;;;3.25;84.71;101622.63;5119861;27;45264;-67
2021/11/11 06:26:22;;;;;;;;;61.25;48.00;;;;;3.35;85.07;101655.63;5119409;27;45341;-67
2021/11/11 06:28:48;;;;;;;;;61.00;47.00;;;;;3.45;84.97;101668.69;5123568;27;45328;-67
2021/11/11 06:31:14;;;;;;;;;63.25;47.25;;;;;3.49;85.27;101670.47;5128373;27;45326;-67
2021/11/11 06:33:39;;;;;;;;;64.75;49.75;;;;;3.52;84.53;101670.47;5120855;27;45305;-67
2021/11/11 06:36:05;;;;;;;;;64.00;49.25;;;;;3.54;85.26;101670.47;5120772;27;45261;-67
2021/11/11 06:38:30;;;;;;;;;61.25;46.25;;;;;3.55;85.19;101677.41;5119530;27;45560;-66
2021/11/11 06:40:56;;;;;;;;;58.00;47.75;;;;;3.51;84.38;101673.94;5119086;27;46061;-65
2021/11/11 06:43:21;;;;;;;;;61.50;49.00;;;;;3.55;84.27;101686.13;5119517;27;45326;-66
2021/11/11 06:45:47;;;;;;;;;48.75;34.75;;;;;3.53;84.48;101681.75;5152524;27;45610;-67
2021/11/11 06:48:13;;;;;;;;;63.50;47.75;;;;;3.48;84.91;101684.34;5119421;27;45274;-68
2021/11/11 06:50:41;;;;;;;;;58.00;43.00;;;;;3.58;84.42;101698.25;5119921;27;46560;-67
2021/11/11 06:53:08;;;;;;;;;57.00;46.75;;;;;3.60;83.64;101692.22;5119703;27;45370;-67
2021/11/11 06:55:35;;;;;;;;;53.75;43.75;;;;;3.63;84.38;101701.75;5121939;27;45346;-66
2021/11/11 06:58:01;;;;;;;;;61.00;47.00;;;;;3.58;84.45;101688.72;5119370;27;45596;-67
2021/11/11 07:00:27;;;;;;;;;58.25;45.50;;;;;3.70;83.74;101698.34;5119640;27;45438;-62
2021/11/11 07:02:52;;;;;;;;;61.25;47.25;;;;;3.73;83.48;101702.69;5119531;27;45298;-66
2021/11/11 07:05:18;;;;;;;;;58.75;44.75;;;;;3.78;84.11;101711.41;5118831;27;45340;-63
2021/11/11 07:07:43;;;;;;;;;57.25;45.25;;;;;3.82;83.29;101701.91;5117826;27;45327;-62
2021/11/11 07:10:09;;;;;;;;;67.50;46.75;;;;;3.84;83.25;101711.44;5119843;27;46241;-63
2021/11/11 07:12:35;;;;;;;;;62.50;47.75;;;;;3.87;83.50;101716.66;5121944;27;45218;-63
2021/11/11 07:15:04;;;;;;;;;61.50;48.50;;;;;3.80;83.63;101686.25;5152629;27;45278;-62
2021/11/11 07:17:30;;;;;;;;;59.50;46.25;;;;;3.97;83.27;101699.38;5118900;27;45407;-63
2021/11/11 07:19:55;;;;;;;;;59.00;47.25;;;;;4.00;83.42;101701.13;5118532;27;46388;-61
2021/11/11 07:22:21;;;;;;;;;59.00;46.00;;;;;3.92;82.91;101691.53;5118870;27;45427;-62
2021/11/11 07:24:46;;;;;;;;;61.75;47.00;;;;;4.00;83.44;101708.94;5118964;27;45282;-65
2021/11/11 07:27:11;;;;;;;;;58.25;45.00;;;;;3.98;83.33;101706.34;5119061;27;45558;-63
2021/11/11 07:29:37;;;;;;;;;61.50;49.25;;;;;3.95;83.28;101701.09;5117899;27;46288;-64
2021/11/11 07:32:03;;;;;;;;;61.25;47.00;;;;;3.91;82.99;101710.63;5118106;27;45241;-64
2021/11/11 07:34:28;;;;;;;;;68.00;48.25;;;;;3.87;83.05;101711.47;5118764;27;45232;-62
2021/11/11 07:36:54;;;;;;;;;65.00;48.25;;;;;3.71;83.53;101689.69;5033835;27;45368;-64
2021/11/11 07:39:21;;;;;;;;;68.00;49.00;;;;;3.85;82.83;101714.94;5016096;28;45236;-63
2021/11/11 07:41:47;;;;;;;;;63.00;49.50;;;;;3.85;83.65;101713.19;5014185;28;45349;-64
2021/11/11 07:44:13;;;;;;;;;60.25;45.50;;;;;3.81;83.37;101711.44;5014167;28;45455;-63
2021/11/11 07:46:40;;;;;;;;;63.00;49.75;;;;;3.89;83.83;101708.88;4996012;28;45414;-67
2021/11/11 07:49:07;;;;;;;;;66.25;51.50;;;;;3.91;83.50;101710.63;5013121;28;46254;-65
2021/11/11 07:51:33;;;;;;;;;56.25;47.00;;;;;3.95;84.13;101719.34;5014024;28;45375;-65
2021/11/11 07:54:00;;;;;;;;;65.50;50.00;;;;;3.93;83.13;101708.03;5014107;28;45305;-66
2021/11/11 07:56:27;;;;;;;;;64.25;48.25;;;;;3.99;83.86;101704.59;5039475;27;45269;-64
2021/11/11 07:58:53;;;;;;;;;57.00;45.50;;;;;3.96;83.71;101682.03;5118960;27;46441;-63
2021/11/11 08:01:18;;;;;;;;;61.00;47.50;;;;;4.07;83.14;101695.97;5089334;27;45501;-65
2021/11/11 08:03:44;;;;;;;;;61.25;48.25;;;;;4.08;83.62;101699.41;5002534;28;45405;-64
2021/11/11 08:06:10;;;;;;;;;65.00;50.75;;;;;4.06;83.38;101690.72;5015438;28;45572;-70
2021/11/11 08:08:35;;;;;;;;;65.25;49.75;;;;;4.00;83.10;101670.75;5014601;28;46683;-71
2021/11/11 08:11:01;;;;;;;;;66.75;49.50;;;;;4.06;83.57;101683.81;5012920;28;45402;-66
2021/11/11 08:13:27;;;;;;;;;65.00;49.75;;;;;3.95;82.93;101659.44;5014131;28;45405;-64
2021/11/11 08:15:53;;;;;;;;;60.25;47.75;;;;;4.04;83.80;101675.13;5014118;28;45439;-66
2021/11/11 08:18:19;;;;;;;;;62.75;50.00;;;;;4.02;83.85;101671.63;5012253;28;46350;-67
2021/11/11 08:20:46;;;;;;;;;71.00;52.50;;;;;4.04;84.31;101685.53;5014106;28;45250;-66
2021/11/11 08:23:11;;;;;;;;;68.00;51.75;;;;;4.09;84.03;101677.72;5016607;28;45447;-69
2021/11/11 08:25:37;;;;;;;;;65.25;52.00;;;;;4.14;84.36;101676.00;5015537;28;45554;-67
2021/11/11 08:28:02;;;;;;;;;68.75;52.50;;;;;4.20;83.73;101683.00;5013600;28;45355;-66
2021/11/11 08:30:28;;;;;;;;;62.50;50.00;;;;;4.19;84.02;101676.91;5013975;28;45371;-68
2021/11/11 08:32:54;;;;;;;;;66.25;51.50;;;;;4.26;84.21;101677.81;5014383;28;45310;-67
2021/11/11 08:35:22;;;;;;;;;68.50;52.00;;;;;4.30;83.58;101668.28;5016284;28;45297;-66
2021/11/11 08:37:48;;;;;;;;;76.25;56.75;;;;;4.32;84.12;101674.38;5014103;28;45585;-67
2021/11/11 08:40:17;;;;;;;;;73.00;54.00;;;;;4.40;84.04;101675.25;5013623;28;45385;-67
2021/11/11 08:42:48;;;;;;;;;67.25;53.00;;;;;4.45;84.04;101664.84;5014395;28;45494;-66
2021/11/11 08:45:15;;;;;;;;;64.50;52.25;;;;;4.56;84.17;101668.34;5017932;28;45189;-68
2021/11/11 08:47:41;;;;;;;;;71.00;52.25;;;;;4.66;84.21;101658.81;5014023;28;46449;-69
2021/11/11 08:50:07;;;;;;;;;68.75;52.75;;;;;4.61;83.83;101643.16;5019411;28;45240;-67
2021/11/11 08:52:33;;;;;;;;;68.75;54.75;;;;;4.72;83.25;101645.78;5021134;28;45349;-67
2021/11/11 08:54:59;;;;;;;;;70.50;55.00;;;;;4.83;83.10;101657.09;5022453;28;45284;-66
2021/11/11 08:57:25;;;;;;;;;68.50;52.75;;;;;4.77;82.81;101624.91;5019996;28;45351;-69
2021/11/11 08:59:55;;;;;;;;;76.67;58.00;;;;;4.96;83.13;101644.06;5020462;28;45262;-65
2021/11/11 09:02:22;;;;;;;;;70.25;55.50;;;;;4.96;83.24;101628.41;5019549;28;45283;-65
2021/11/11 09:04:49;;;;;;;;;69.00;54.50;;;;;5.09;83.19;101637.13;5020136;28;45463;-66
2021/11/11 09:07:15;;;;;;;;;75.50;57.75;;;;;5.14;83.21;101637.09;5018306;28;47114;-68
2021/11/11 09:09:43;;;;;;;;;73.50;55.50;;;;;5.23;82.95;101637.09;5018629;28;45426;-66
2021/11/11 09:12:08;;;;;;;;;74.75;57.25;;;;;5.29;82.90;101637.09;5019657;28;45415;-70
2021/11/11 09:14:34;;;;;;;;;70.50;53.25;;;;;5.37;83.13;101644.91;5019427;28;45575;-67
2021/11/11 09:16:59;;;;;;;;;72.00;56.33;;;;;5.46;83.08;101638.84;5019988;28;46541;-67
2021/11/11 09:19:24;;;;;;;;;62.00;49.75;;;;;5.53;82.64;101640.56;5019654;27;45300;-68
2021/11/11 09:21:50;;;;;;;;;73.00;53.00;;;;;5.64;82.80;101648.34;5020191;28;45348;-69
2021/11/11 09:24:15;;;;;;;;;75.25;57.00;;;;;5.70;82.49;101637.88;5020357;28;45422;-66
2021/11/11 09:26:41;;;;;;;;;74.50;57.50;;;;;5.78;82.14;101633.50;5020571;28;45990;-64
2021/11/11 09:29:07;;;;;;;;;73.00;55.75;;;;;5.87;81.75;101637.84;5021226;28;45452;-66
2021/11/11 09:31:36;;;;;;;;;75.00;56.00;;;;;5.92;81.79;101636.06;5021191;28;45431;-64
2021/11/11 09:34:02;;;;;;;;;71.25;56.00;;;;;6.04;80.78;101636.94;5020547;28;45367;-71
2021/11/11 09:36:28;;;;;;;;;71.75;55.00;;;;;6.08;81.22;101641.28;5020394;28;46070;-65
2021/11/11 09:38:53;;;;;;;;;71.25;55.00;;;;;6.16;80.58;101639.50;5001092;27;45388;-63
2021/11/11 09:41:20;;;;;;;;;76.00;57.75;;;;;6.23;80.87;101638.59;5018857;28;45398;-65
2021/11/11 09:43:46;;;;;;;;;72.50;54.25;;;;;6.26;80.10;101632.47;5019845;28;45253;-66
2021/11/11 09:46:15;;;;;;;;;74.00;55.33;;;;;6.34;80.39;101645.50;5020023;28;45978;-68
2021/11/11 09:48:42;;;;;;;;;74.33;56.33;;;;;6.41;80.59;101652.44;5019340;28;45376;-66
2021/11/11 09:51:12;;;;;;;;;72.75;57.00;;;;;6.45;80.17;101642.84;5019986;28;45383;-65
2021/11/11 09:53:50;;;;;;;;;71.50;55.75;;;;;6.56;79.41;101644.53;5018425;28;45363;-65
2021/11/11 09:59:01;;;;;;;;;69.25;53.50;;;;;6.65;79.08;101642.72;5019021;28;45717;-70
2021/11/11 10:01:26;;;;;;;;;74.00;55.25;;;;;6.68;79.46;101634.84;5016340;27;45323;-64
2021/11/11 10:03:53;;;;;;;;;77.75;57.00;;;;;6.70;78.38;101633.09;5015651;28;45406;-67
2021/11/11 10:06:21;;;;;;;;;68.50;53.50;;;;;6.76;78.74;101637.41;5014670;28;47053;-67
2021/11/11 10:08:52;;;;;;;;;73.25;55.75;;;;;6.85;79.12;101643.44;5015465;28;45245;-71
2021/11/11 10:11:31;;;;;;;;;72.75;56.50;;;;;6.89;78.99;101627.72;5015731;28;45194;-66
2021/11/11 10:14:00;;;;;;;;;73.25;55.00;;;;;6.94;78.33;101636.41;5016091;28;45220;-66
2021/11/11 10:16:26;;;;;;;;;70.00;54.67;;;;;7.03;78.07;101636.31;5014745;28;46455;-71
2021/11/11 10:18:53;;;;;;;;;74.67;57.67;;;;;7.09;76.99;101628.41;5015995;28;45375;-69
2021/11/11 10:21:27;;;;;;;;;78.00;63.00;;;;;7.17;77.31;101620.50;5016789;28;45221;-67
2021/11/11 10:23:53;;;;;;;;;76.00;57.00;;;;;7.20;76.54;101612.63;5018591;28;45176;-69
2021/11/11 10:26:22;;;;;;;;;80.33;64.33;;;;;7.25;76.93;101617.81;5018165;28;46083;-68
2021/11/11 10:28:47;;;;;;;;;79.00;67.33;;;;;7.29;75.72;101616.91;5018455;28;45594;-67
2021/11/11 10:31:18;;;;;;;;;79.67;65.00;;;;;7.28;75.44;101610.81;5017761;28;45397;-66
2021/11/11 10:34:08;;;;;;;;;81.33;65.33;;;;;7.33;76.12;101597.66;5021941;28;45486;-65
2021/11/11 10:36:44;;;;;;;;;85.00;72.67;;;;;7.39;75.33;101608.06;5020884;28;48080;-68
2021/11/11 10:39:12;;;;;;;;;83.00;72.33;;;;;7.31;75.68;101583.72;5021582;28;45394;-67
2021/11/11 10:41:38;;;;;;;;;85.67;77.67;;;;;7.45;74.76;101601.91;5021237;28;45240;-67
2021/11/11 10:44:21;;;;;;;;;84.00;73.33;;;;;7.48;75.49;101616.72;5019351;28;45278;-67
2021/11/11 10:46:48;;;;;;;;;78.33;63.00;;;;;7.50;74.90;101623.66;5016182;28;46492;-68
2021/11/11 10:49:36;;;;;;;;;83.67;70.33;;;;;7.56;74.61;101633.22;5015268;28;45324;-69
2021/11/11 10:52:31;;;;;;;;;85.00;76.33;;;;;7.60;74.88;101630.53;5015207;28;45257;-68
2021/11/11 10:55:10;;;;;;;;;78.67;64.33;;;;;7.68;74.21;101640.06;5016458;28;45277;-65
2021/11/11 10:57:44;;;;;;;;;84.33;73.33;;;;;7.71;74.55;101635.69;5015389;28;45437;-68
2021/11/11 11:00:10;;;;;;;;;81.67;69.67;;;;;7.81;75.26;101631.19;5015717;28;45431;-67
2021/11/11 11:02:49;;;;;;;;;79.67;64.67;;;;;7.91;74.73;101618.84;5016111;28;45426;-68
2021/11/11 11:05:15;;;;;;;;;89.00;75.67;;;;;7.98;74.55;101607.41;5015258;28;45244;-68
2021/11/11 11:07:40;;;;;;;;;111.50;98.25;;;;;8.07;74.36;101600.31;5012418;28;46302;-69
2021/11/11 11:10:08;;;;;;;;;77.67;61.67;;;;;7.82;74.46;101543.84;5013215;28;45258;-67
2021/11/11 11:12:34;;;;;;;;;81.67;67.00;;;;;8.29;74.50;101599.13;5011694;28;45388;-66
2021/11/11 11:15:00;;;;;;;;;78.33;67.33;;;;;8.48;74.36;101580.50;5014632;28;45411;-68
2021/11/11 11:17:27;;;;;;;;;83.00;75.33;;;;;8.79;73.60;101585.31;5013637;28;45450;-67
2021/11/11 11:20:21;;;;;;;;;85.67;76.00;;;;;9.03;72.83;101575.28;5013333;28;45388;-67
2021/11/11 11:22:47;;;;;;;;;81.33;72.33;;;;;9.03;72.41;101543.78;5015190;28;45311;-67
2021/11/11 11:25:13;;;;;;;;;76.33;65.67;;;;;9.37;72.11;101545.75;5017649;28;44868;-68
2021/11/11 11:27:38;;;;;;;;;76.33;66.00;;;;;9.63;71.71;101558.38;5016132;28;46343;-69
2021/11/11 11:30:13;;;;;;;;;76.33;65.67;;;;;9.72;70.62;101548.56;5015248;28;45796;-65
2021/11/11 11:32:44;;;;;;;;;69.00;55.33;;;;;9.87;70.66;101558.75;5015047;28;45183;-68
2021/11/11 11:35:11;;;;;;;;;77.67;65.33;;;;;9.91;69.75;101564.81;5014746;28;45420;-66
2021/11/11 11:37:38;;;;;;;;;77.67;65.00;;;;;9.91;69.59;101562.19;5014499;28;46503;-68
2021/11/11 11:40:10;;;;;;;;;72.33;57.67;;;;;9.84;69.66;101560.59;5012759;28;45437;-68
2021/11/11 11:42:43;;;;;;;;;78.00;69.33;;;;;9.92;69.41;101570.03;5014597;28;45326;-69